Time;durP1;ratioP1;P1;durP2;ratioP2;P2;SDS_P1;SDS_P2;PMS_P1;PMS_P2;Temp;Humidity;BMP_temperature;BMP_pressure;BME280_temperature;BME280_humidity;BME280_pressure;Samples;Min_cycle;Max_cycle;Signal;HPM_P1;HPM_P2
2023/06/27 00:01:12;;;;;;;0.73;0.70;;;;;;;19.38;56.13;96554.13;5035712;28;20704;-69
2023/06/27 00:03:39;;;;;;;2.35;0.55;;;;;;;19.26;57.43;96566.63;5035580;28;20221;-69
2023/06/27 00:06:05;;;;;;;0.38;0.32;;;;;;;19.18;56.54;96561.53;5035486;28;20208;-67
2023/06/27 00:08:32;;;;;;;0.32;0.30;;;;;;;19.19;56.43;96565.84;5035496;28;20201;-68
2023/06/27 00:10:59;;;;;;;1.33;0.90;;;;;;;19.14;56.99;96561.19;5035994;28;20205;-68
2023/06/27 00:13:25;;;;;;;3.55;0.60;;;;;;;19.08;58.85;96564.75;5036837;28;20224;-69
2023/06/27 00:15:53;;;;;;;2.88;0.90;;;;;;;19.17;58.45;96571.41;5039283;28;20212;-68
2023/06/27 00:18:21;;;;;;;0.80;0.80;;;;;;;18.98;58.31;96571.59;5039354;28;20217;-69
2023/06/27 00:20:48;;;;;;;1.50;0.73;;;;;;;19.02;57.98;96565.56;5038757;28;20239;-69
2023/06/27 00:23:19;;;;;;;0.40;0.30;;;;;;;19.07;60.70;96564.97;5039285;28;20233;-68
2023/06/27 00:25:46;;;;;;;0.52;0.50;;;;;;;18.81;60.61;96570.50;5039478;28;20198;-70
2023/06/27 00:28:13;;;;;;;0.93;0.60;;;;;;;18.64;62.30;96565.97;5038878;28;20201;-69
2023/06/27 00:30:39;;;;;;;2.17;1.00;;;;;;;18.67;63.50;96566.34;5039038;28;20308;-68
2023/06/27 00:33:09;;;;;;;2.25;0.75;;;;;;;18.68;65.81;96567.97;5038937;28;20739;-69
2023/06/27 00:35:35;;;;;;;0.43;0.30;;;;;;;18.38;67.42;96564.31;5038717;28;20209;-68
2023/06/27 00:38:02;;;;;;;0.40;0.40;;;;;;;18.35;67.64;96567.44;5038503;28;20700;-70
2023/06/27 00:40:29;;;;;;;0.73;0.73;;;;;;;18.22;68.71;96565.88;5039455;28;20688;-70
2023/06/27 00:42:55;;;;;;;0.90;0.40;;;;;;;18.06;69.45;96571.69;5038811;28;20224;-69
2023/06/27 00:45:23;;;;;;;0.77;0.70;;;;;;;18.11;69.25;96571.88;5038984;28;20205;-69
2023/06/27 00:47:51;;;;;;;0.70;0.30;;;;;;;18.12;70.02;96570.84;5038839;28;20201;-69
2023/06/27 00:50:21;;;;;;;1.73;0.77;;;;;;;17.98;69.66;96577.28;5038949;28;20213;-70
2023/06/27 00:52:48;;;;;;;5.72;0.63;;;;;;;17.89;70.16;96589.22;5038285;28;20250;-69
2023/06/27 00:55:14;;;;;;;0.90;0.50;;;;;;;17.88;71.04;96584.94;5038219;28;20207;-69
2023/06/27 00:57:41;;;;;;;0.68;0.68;;;;;;;17.81;71.30;96587.63;5038708;28;20217;-68
2023/06/27 01:00:11;;;;;;;0.52;0.50;;;;;;;17.76;71.20;96581.31;5038558;28;20201;-67
2023/06/27 01:02:37;;;;;;;6.15;0.70;;;;;;;17.74;71.34;96583.34;5038280;28;20259;-66
2023/06/27 01:05:05;;;;;;;0.40;0.30;;;;;;;17.78;72.05;96595.22;5038412;28;20205;-68
2023/06/27 01:07:38;;;;;;;0.25;0.25;;;;;;;17.71;72.87;96582.97;5038089;28;20321;-66
2023/06/27 01:10:11;;;;;;;2.22;0.43;;;;;;;17.70;73.47;96586.69;5038310;28;20205;-73
2023/06/27 01:12:45;;;;;;;1.02;0.65;;;;;;;17.60;74.16;96588.97;5037980;28;20776;-71
2023/06/27 01:15:12;;;;;;;3.03;0.73;;;;;;;17.35;75.24;96588.84;5038436;28;20209;-70
2023/06/27 01:17:40;;;;;;;1.48;0.63;;;;;;;17.41;74.57;96589.84;5037824;28;20570;-71
2023/06/27 01:20:09;;;;;;;2.10;0.90;;;;;;;17.55;74.58;96597.56;5038693;28;20561;-68
2023/06/27 01:22:41;;;;;;;2.80;0.77;;;;;;;17.55;75.11;96594.09;5038121;28;20229;-68
2023/06/27 01:25:12;;;;;;;1.77;0.73;;;;;;;17.47;75.97;96597.81;5037311;28;20216;-74
2023/06/27 01:27:39;;;;;;;0.88;0.57;;;;;;;17.31;76.49;96595.63;5037854;28;20208;-68
2023/06/27 01:30:08;;;;;;;1.35;0.73;;;;;;;17.25;75.98;96593.81;5038392;28;20197;-74
2023/06/27 01:32:40;;;;;;;0.50;0.32;;;;;;;17.36;75.92;96598.50;5036533;28;20225;-71
2023/06/27 01:35:12;;;;;;;1.35;0.68;;;;;;;17.46;75.68;96585.53;5037870;28;20689;-68
2023/06/27 01:37:42;;;;;;;1.35;0.82;;;;;;;17.13;75.66;96592.78;5037470;28;20573;-73
2023/06/27 01:40:14;;;;;;;3.05;1.23;;;;;;;17.21;75.74;96592.56;5037583;28;20584;-68
2023/06/27 01:42:42;;;;;;;0.85;0.65;;;;;;;16.91;76.94;96589.75;5037965;28;20252;-70
2023/06/27 01:45:10;;;;;;;0.82;0.63;;;;;;;17.05;77.66;96597.50;5038108;28;20209;-72
2023/06/27 01:47:41;;;;;;;1.17;0.80;;;;;;;17.05;77.09;96594.84;5036835;28;20549;-70
2023/06/27 01:50:09;;;;;;;0.80;0.68;;;;;;;16.96;78.01;96597.94;5037600;28;20217;-72
2023/06/27 01:52:36;;;;;;;0.50;0.50;;;;;;;16.70;78.01;96597.94;5037555;28;20244;-68
2023/06/27 01:55:03;;;;;;;0.30;0.30;;;;;;;16.84;78.58;96594.25;5037380;28;20205;-75
2023/06/27 01:57:31;;;;;;;1.67;0.50;;;;;;;17.00;77.75;96596.50;5036976;28;20257;-67
2023/06/27 01:59:57;;;;;;;1.90;0.65;;;;;;;16.85;78.69;96590.56;5038723;28;20216;-69
2023/06/27 02:02:23;;;;;;;1.17;0.75;;;;;;;16.74;78.81;96589.38;5036923;28;20228;-75
2023/06/27 02:04:50;;;;;;;9.40;0.60;;;;;;;16.84;78.41;96588.94;5037275;28;20201;-68
2023/06/27 02:07:18;;;;;;;0.82;0.80;;;;;;;16.82;78.34;96598.97;5037088;28;20197;-69
2023/06/27 02:09:44;;;;;;;0.95;0.82;;;;;;;16.78;78.62;96597.75;5037216;28;20205;-66
2023/06/27 02:12:11;;;;;;;2.22;0.70;;;;;;;16.84;78.88;96595.09;5037283;28;20225;-67
2023/06/27 02:14:39;;;;;;;1.15;0.65;;;;;;;16.87;79.00;96593.88;5037192;28;20209;-69
2023/06/27 02:17:06;;;;;;;1.38;1.00;;;;;;;16.87;78.54;96593.88;5037290;28;20209;-69
2023/06/27 02:19:32;;;;;;;0.93;0.50;;;;;;;16.85;78.22;96590.56;5036497;28;20212;-68
2023/06/27 02:21:58;;;;;;;2.22;1.00;;;;;;;16.55;80.37;96589.38;5037024;28;20244;-69
2023/06/27 02:24:25;;;;;;;1.50;0.70;;;;;;;16.55;79.92;96579.53;5037082;28;20205;-67
2023/06/27 02:26:51;;;;;;;0.98;0.63;;;;;;;16.61;80.33;96577.91;5036933;28;20208;-67
2023/06/27 02:29:18;;;;;;;1.52;1.10;;;;;;;16.73;79.91;96584.25;5035453;28;20198;-67
2023/06/27 02:31:46;;;;;;;1.35;1.02;;;;;;;16.81;78.75;96592.00;5035932;28;20268;-68
2023/06/27 02:34:12;;;;;;;2.15;0.80;;;;;;;16.83;79.26;96579.34;5036911;28;20204;-70
2023/06/27 02:36:39;;;;;;;1.73;0.73;;;;;;;16.84;79.95;96578.28;5036299;28;20209;-67
2023/06/27 02:39:05;;;;;;;1.05;0.70;;;;;;;16.71;80.89;96580.97;5036678;28;20225;-68
2023/06/27 02:41:32;;;;;;;0.65;0.65;;;;;;;16.82;80.21;96586.47;5036729;28;20205;-68
2023/06/27 02:43:58;;;;;;;0.70;0.65;;;;;;;16.67;80.46;96575.22;5036339;28;20209;-67
2023/06/27 02:46:25;;;;;;;1.17;0.50;;;;;;;16.64;80.42;96574.84;5037018;28;20585;-67
2023/06/27 02:48:53;;;;;;;0.65;0.65;;;;;;;16.69;81.52;96586.50;5036391;28;20197;-68
2023/06/27 02:51:21;;;;;;;1.45;1.30;;;;;;;16.61;81.07;96583.22;5036407;28;20223;-67
2023/06/27 02:53:48;;;;;;;1.65;0.38;;;;;;;16.64;81.19;96583.63;5036364;28;20229;-69
2023/06/27 02:56:14;;;;;;;1.67;0.70;;;;;;;16.64;81.61;96590.81;5037201;28;20209;-67
2023/06/27 02:58:42;;;;;;;2.30;1.30;;;;;;;16.62;81.70;96584.84;5035548;28;20251;-68
2023/06/27 03:01:08;;;;;;;0.68;0.40;;;;;;;16.65;82.62;96584.47;5036356;28;20221;-67
2023/06/27 03:03:35;;;;;;;2.05;0.68;;;;;;;16.50;84.04;96584.66;5037015;28;20244;-69
2023/06/27 03:06:08;;;;;;;1.05;0.85;;;;;;;16.74;82.63;96581.38;5036324;28;20243;-69
2023/06/27 03:08:35;;;;;;;0.85;0.68;;;;;;;16.60;83.50;96592.25;5035900;28;20869;-68
2023/06/27 03:11:01;;;;;;;1.75;0.60;;;;;;;16.63;83.71;96591.81;5037158;28;20251;-69
2023/06/27 03:13:28;;;;;;;0.52;0.52;;;;;;;16.64;82.66;96586.28;5035840;28;20229;-69
2023/06/27 03:15:54;;;;;;;1.55;0.93;;;;;;;16.69;83.29;96586.50;5036557;28;20208;-68
2023/06/27 03:18:21;;;;;;;4.20;0.60;;;;;;;16.62;84.23;96587.53;5035526;28;20232;-67
2023/06/27 03:20:47;;;;;;;2.22;0.82;;;;;;;16.83;82.62;96590.78;5036417;28;21063;-69
2023/06/27 03:23:15;;;;;;;1.30;1.20;;;;;;;16.99;82.02;96585.00;5036436;28;20232;-70
2023/06/27 03:25:42;;;;;;;0.95;0.80;;;;;;;16.70;84.50;96589.97;5036428;28;20205;-69
2023/06/27 03:28:08;;;;;;;0.90;0.50;;;;;;;16.67;83.49;96585.88;5035652;28;20240;-66
2023/06/27 03:30:35;;;;;;;0.88;0.73;;;;;;;16.80;84.52;96593.88;5036279;28;20733;-67
2023/06/27 03:33:01;;;;;;;5.05;0.98;;;;;;;16.87;82.09;96592.00;5036427;28;20221;-68
2023/06/27 03:35:28;;;;;;;1.55;0.65;;;;;;;16.90;83.57;96594.25;5036282;28;20577;-68
2023/06/27 03:37:54;;;;;;;0.85;0.73;;;;;;;16.86;83.78;96597.53;5035565;28;20231;-70
2023/06/27 03:40:22;;;;;;;0.38;0.38;;;;;;;17.08;83.53;96593.59;5036098;28;20685;-68
2023/06/27 03:42:49;;;;;;;1.23;1.13;;;;;;;17.01;83.66;96601.63;5036054;28;20221;-69
2023/06/27 03:45:15;;;;;;;0.90;0.65;;;;;;;16.96;83.04;96598.75;5036026;28;20616;-68
2023/06/27 03:47:42;;;;;;;0.57;0.50;;;;;;;16.80;84.17;96607.19;5037088;28;20682;-69
2023/06/27 03:50:09;;;;;;;1.02;0.75;;;;;;;16.74;87.03;96599.19;5040743;28;20220;-66
2023/06/27 03:52:35;;;;;;;4.78;0.98;;;;;;;16.73;85.44;96605.53;5039764;28;20244;-69
2023/06/27 03:55:02;;;;;;;0.93;0.80;;;;;;;16.80;84.44;96609.84;5039973;28;20208;-68
2023/06/27 03:57:30;;;;;;;0.52;0.52;;;;;;;17.08;83.57;96608.56;5039668;28;20201;-69
2023/06/27 03:59:56;;;;;;;2.33;1.25;;;;;;;16.89;86.66;96613.09;5039880;28;20229;-69
2023/06/27 04:02:23;;;;;;;1.10;0.75;;;;;;;16.99;86.11;96614.31;5039600;28;20221;-67
2023/06/27 04:04:49;;;;;;;2.88;0.88;;;;;;;17.00;87.08;96615.13;5039996;28;20221;-67
2023/06/27 04:07:16;;;;;;;1.70;0.50;;;;;;;17.04;85.93;96616.34;5039415;28;20216;-67
2023/06/27 04:09:42;;;;;;;1.42;0.73;;;;;;;17.24;85.87;96617.97;5039260;28;20205;-67
2023/06/27 04:12:09;;;;;;;2.47;0.98;;;;;;;17.30;86.24;96611.84;5039549;28;20221;-69
2023/06/27 04:14:37;;;;;;;3.50;1.13;;;;;;;17.49;85.23;96602.94;5039707;28;20216;-69
2023/06/27 04:17:04;;;;;;;1.20;0.75;;;;;;;17.51;85.16;96615.03;5039042;28;20212;-69
2023/06/27 04:19:31;;;;;;;1.33;1.00;;;;;;;17.36;86.65;96614.47;5038443;28;20236;-70
2023/06/27 04:21:57;;;;;;;2.92;0.80;;;;;;;17.36;84.97;96614.47;5040316;28;20228;-70
2023/06/27 04:24:24;;;;;;;1.27;0.57;;;;;;;17.45;85.80;96620.38;5039102;28;20205;-67
2023/06/27 04:26:50;;;;;;;1.13;0.73;;;;;;;17.48;84.33;96626.13;5038918;28;20209;-68
2023/06/27 04:29:17;;;;;;;2.05;0.70;;;;;;;17.56;85.13;96617.06;5038925;28;20197;-69
2023/06/27 04:31:45;;;;;;;0.82;0.80;;;;;;;17.70;86.13;96630.13;5039095;28;20980;-71
2023/06/27 04:34:11;;;;;;;2.42;0.80;;;;;;;17.63;86.50;96624.03;5038896;28;20213;-67
2023/06/27 04:36:41;;;;;;;4.18;0.73;;;;;;;17.74;84.69;96618.00;5039440;28;20214;-68
2023/06/27 04:39:08;;;;;;;0.98;0.85;;;;;;;17.79;83.91;96615.53;5038691;28;20575;-70
2023/06/27 04:41:34;;;;;;;1.33;0.65;;;;;;;17.88;83.08;96619.59;5038750;28;20217;-70
2023/06/27 04:44:00;;;;;;;2.53;1.00;;;;;;;17.95;83.53;96628.41;5039108;28;20209;-69
2023/06/27 04:46:28;;;;;;;1.05;0.75;;;;;;;18.13;84.04;96623.16;5039143;28;20205;-68
2023/06/27 04:48:57;;;;;;;0.95;0.80;;;;;;;18.21;79.64;96626.41;5038121;28;20200;-71
2023/06/27 04:51:24;;;;;;;3.67;0.93;;;;;;;18.22;84.81;96636.06;5038461;28;20287;-69
2023/06/27 04:53:50;;;;;;;1.77;1.27;;;;;;;18.16;78.98;96631.53;5038796;28;20720;-70
2023/06/27 04:56:17;;;;;;;1.58;0.85;;;;;;;18.33;83.61;96626.53;5039001;28;20204;-67
2023/06/27 04:58:43;;;;;;;1.05;0.60;;;;;;;18.28;84.50;96626.38;5037497;28;20228;-69
2023/06/27 05:01:10;;;;;;;1.75;1.15;;;;;;;18.41;81.85;96625.25;5038341;28;20298;-70
2023/06/27 05:03:37;;;;;;;1.45;0.90;;;;;;;18.41;81.50;96627.91;5038514;28;20260;-67
2023/06/27 05:06:05;;;;;;;1.80;0.80;;;;;;;18.57;82.03;96627.41;5039139;28;20201;-70
2023/06/27 05:08:33;;;;;;;1.58;0.93;;;;;;;18.68;81.47;96624.03;5037901;28;20201;-68
2023/06/27 05:10:59;;;;;;;1.42;0.95;;;;;;;18.58;84.17;96634.38;5038153;28;20220;-69
2023/06/27 05:13:26;;;;;;;0.73;0.70;;;;;;;18.66;84.72;96634.13;5038229;28;20225;-68
2023/06/27 05:15:52;;;;;;;2.88;1.00;;;;;;;18.74;84.76;96630.38;5038423;28;20197;-72
2023/06/27 05:18:23;;;;;;;1.10;0.80;;;;;;;18.99;82.83;96627.47;5037690;28;20212;-69
2023/06/27 05:20:50;;;;;;;3.72;1.30;;;;;;;18.87;80.98;96625.72;5037753;28;20205;-68
2023/06/27 05:23:18;;;;;;;1.35;0.98;;;;;;;19.00;82.65;96630.94;5038290;28;20713;-69
2023/06/27 05:25:45;;;;;;;1.55;1.20;;;;;;;18.95;78.63;96628.94;5039257;28;20221;-71
2023/06/27 05:28:12;;;;;;;1.75;0.90;;;;;;;19.02;79.19;96624.34;5037411;28;20205;-70
2023/06/27 05:30:38;;;;;;;2.45;1.45;;;;;;;19.09;80.26;96624.31;5038131;28;20206;-67
2023/06/27 05:33:05;;;;;;;4.18;1.05;;;;;;;19.13;82.44;96625.50;5038776;28;20229;-70
2023/06/27 05:35:32;;;;;;;3.90;0.90;;;;;;;19.11;82.47;96627.59;5037443;28;20692;-70
2023/06/27 05:37:59;;;;;;;1.13;1.00;;;;;;;19.02;81.01;96639.56;5037281;28;20814;-68
2023/06/27 05:40:28;;;;;;;1.10;0.80;;;;;;;19.20;79.58;96643.13;5037990;28;20231;-70
2023/06/27 05:42:54;;;;;;;1.30;0.93;;;;;;;19.19;76.57;96648.69;5037943;28;20224;-69
2023/06/27 05:45:21;;;;;;;1.20;0.90;;;;;;;19.34;75.11;96643.81;5037454;28;20955;-67
2023/06/27 05:47:47;;;;;;;2.13;0.93;;;;;;;19.43;80.22;96647.84;5037390;28;20670;-66
2023/06/27 05:50:14;;;;;;;1.05;0.70;;;;;;;19.50;81.86;96656.59;5037980;28;20201;-69
2023/06/27 05:52:41;;;;;;;3.15;1.38;;;;;;;19.55;78.40;96646.03;5034410;28;20237;-67
2023/06/27 05:55:08;;;;;;;2.53;1.40;;;;;;;19.62;78.51;96647.63;5036879;28;20216;-67
2023/06/27 05:57:36;;;;;;;1.75;1.00;;;;;;;19.77;76.03;96637.38;5035907;28;20592;-69
2023/06/27 06:00:05;;;;;;;2.63;1.23;;;;;;;19.80;76.76;96632.38;5036133;28;20229;-68
2023/06/27 06:02:32;;;;;;;2.00;0.93;;;;;;;19.77;73.97;96624.81;5036626;28;20228;-67
2023/06/27 06:05:00;;;;;;;1.45;1.00;;;;;;;19.90;75.26;96626.50;5036699;28;20202;-70
2023/06/27 06:07:27;;;;;;;2.28;1.17;;;;;;;19.80;73.54;96637.72;5034178;28;20208;-66
2023/06/27 06:09:53;;;;;;;2.78;1.27;;;;;;;19.74;75.39;96635.97;5035835;28;20208;-68
2023/06/27 06:12:20;;;;;;;3.45;1.23;;;;;;;19.56;72.96;96647.69;5035461;28;20236;-67
2023/06/27 06:14:48;;;;;;;1.17;0.75;;;;;;;19.95;70.39;96637.38;5036389;28;20212;-70
2023/06/27 06:17:14;;;;;;;13.00;2.13;;;;;;;19.99;73.21;96639.38;5036136;28;20201;-70
2023/06/27 06:19:41;;;;;;;1.70;1.08;;;;;;;19.98;70.03;96643.09;5036299;28;20225;-68
2023/06/27 06:22:07;;;;;;;4.97;1.35;;;;;;;19.83;68.59;96647.16;5035758;28;20217;-70
2023/06/27 06:24:34;;;;;;;2.65;1.05;;;;;;;20.01;69.72;96639.97;5035967;28;20205;-69
2023/06/27 06:27:00;;;;;;;5.53;1.77;;;;;;;20.11;68.16;96652.81;5036470;28;20209;-69
2023/06/27 06:29:27;;;;;;;4.30;1.45;;;;;;;20.11;67.14;96659.00;5035754;28;20208;-70
2023/06/27 06:31:55;;;;;;;2.65;0.70;;;;;;;20.25;64.74;96655.06;5035978;28;20221;-67
2023/06/27 06:34:22;;;;;;;1.73;1.00;;;;;;;20.05;65.33;96665.22;5036721;28;20290;-71
2023/06/27 06:36:49;;;;;;;1.05;0.68;;;;;;;20.06;69.46;96666.88;5035601;28;20201;-69
2023/06/27 06:39:15;;;;;;;3.72;1.60;;;;;;;19.86;71.95;96658.22;5034677;28;21138;-69
2023/06/27 06:41:41;;;;;;;1.73;1.10;;;;;;;20.10;67.50;96653.84;5035949;28;21065;-67
2023/06/27 06:44:08;;;;;;;3.63;2.10;;;;;;;20.24;65.39;96653.47;5036551;28;20558;-69
2023/06/27 06:46:35;;;;;;;0.70;0.52;;;;;;;20.36;65.40;96657.00;5035272;28;20201;-66
2023/06/27 06:49:03;;;;;;;1.75;1.05;;;;;;;20.32;63.46;96640.56;5035037;28;20212;-68
2023/06/27 06:51:29;;;;;;;1.85;0.80;;;;;;;20.38;65.12;96641.53;5035661;28;20205;-66
2023/06/27 06:53:56;;;;;;;1.77;0.65;;;;;;;20.41;66.31;96646.41;5034856;28;20217;-69
2023/06/27 06:56:22;;;;;;;1.30;1.13;;;;;;;20.52;65.21;96651.81;5035753;28;20209;-70
2023/06/27 06:58:48;;;;;;;3.25;1.23;;;;;;;20.76;66.88;96647.34;5035111;28;20205;-67
2023/06/27 07:01:15;;;;;;;5.57;1.20;;;;;;;20.76;68.72;96642.84;5035297;28;20212;-68
2023/06/27 07:03:42;;;;;;;1.00;0.70;;;;;;;21.00;59.64;96644.47;5035353;28;20724;-66
2023/06/27 07:06:10;;;;;;;1.45;0.90;;;;;;;21.26;59.11;96639.50;5035560;28;20692;-69
2023/06/27 07:08:36;;;;;;;3.05;1.23;;;;;;;21.03;59.13;96644.84;5034746;28;20666;-70
2023/06/27 07:11:03;;;;;;;2.38;0.88;;;;;;;20.90;57.14;96642.38;5035274;28;20205;-69
2023/06/27 07:13:29;;;;;;;1.50;0.80;;;;;;;21.12;55.92;96646.13;5035140;28;20302;-66
2023/06/27 07:15:56;;;;;;;1.30;0.73;;;;;;;21.26;57.94;96641.38;5036295;28;20241;-69
2023/06/27 07:18:22;;;;;;;3.97;0.55;;;;;;;21.12;55.28;96640.78;5035535;28;20216;-70
2023/06/27 07:20:49;;;;;;;0.40;0.40;;;;;;;20.92;56.72;96647.50;5035818;28;20232;-68
2023/06/27 07:23:17;;;;;;;0.95;0.75;;;;;;;21.16;57.98;96646.50;5038715;28;20231;-67
2023/06/27 07:25:43;;;;;;;1.00;0.90;;;;;;;21.22;58.03;96654.41;5039570;28;20201;-69
2023/06/27 07:28:10;;;;;;;0.93;0.60;;;;;;;21.37;57.20;96649.38;5039240;28;20205;-67
2023/06/27 07:30:36;;;;;;;2.80;0.80;;;;;;;21.24;56.70;96648.81;5039959;28;21012;-69
2023/06/27 07:33:03;;;;;;;1.45;0.50;;;;;;;21.58;57.95;96646.16;5039895;28;20229;-70
2023/06/27 07:35:29;;;;;;;48.80;9.82;;;;;;;21.54;57.85;96648.50;5039890;28;20610;-69
2023/06/27 07:37:56;;;;;;;2.38;1.00;;;;;;;21.32;55.17;96651.16;5039101;28;20704;-67
2023/06/27 07:40:24;;;;;;;1.58;0.88;;;;;;;21.60;54.93;96652.94;5040069;28;20711;-70
2023/06/27 07:42:51;;;;;;;2.55;1.25;;;;;;;21.47;56.00;96645.09;5039792;28;20221;-70
2023/06/27 07:45:18;;;;;;;0.40;0.40;;;;;;;21.21;55.39;96635.91;5039236;28;20794;-67
2023/06/27 07:47:44;;;;;;;1.33;0.65;;;;;;;21.48;55.10;96635.97;5039409;28;20201;-67
2023/06/27 07:50:11;;;;;;;1.90;0.75;;;;;;;21.64;54.50;96634.50;5039308;28;20208;-67
2023/06/27 07:52:37;;;;;;;1.73;0.90;;;;;;;21.57;56.87;96631.91;5038894;28;20240;-67
2023/06/27 07:55:04;;;;;;;0.50;0.45;;;;;;;21.57;57.46;96636.47;5039672;28;20208;-70
2023/06/27 07:57:32;;;;;;;1.15;1.05;;;;;;;21.88;56.47;96630.69;5038779;28;20209;-68
2023/06/27 07:59:59;;;;;;;1.63;1.00;;;;;;;21.86;54.85;96630.13;5038400;28;20258;-67
2023/06/27 08:02:26;;;;;;;1.88;1.00;;;;;;;22.06;54.27;96631.38;5039738;28;20263;-67
2023/06/27 08:04:52;;;;;;;0.60;0.50;;;;;;;22.18;57.18;96634.81;5038837;28;20722;-70
2023/06/27 08:07:19;;;;;;;1.08;0.98;;;;;;;22.14;57.43;96637.16;5038549;28;20483;-68
2023/06/27 08:09:45;;;;;;;3.33;0.80;;;;;;;22.04;52.81;96635.34;5038779;28;20201;-70
2023/06/27 08:12:12;;;;;;;0.90;0.80;;;;;;;21.73;51.40;96619.66;5039002;28;20496;-70
2023/06/27 08:14:42;;;;;;;8.40;0.70;;;;;;;22.13;51.67;96623.97;5038924;28;20597;-70
2023/06/27 08:17:08;;;;;;;0.88;0.60;;;;;;;22.04;55.11;96623.53;5038571;28;20208;-69
2023/06/27 08:19:35;;;;;;;0.90;0.82;;;;;;;22.47;54.00;96623.88;5038660;28;20262;-69
2023/06/27 08:22:01;;;;;;;1.60;0.60;;;;;;;22.45;52.81;96620.59;5038810;28;20228;-69
2023/06/27 08:24:28;;;;;;;2.25;0.80;;;;;;;22.35;53.04;96611.53;5039492;28;20209;-69
2023/06/27 08:26:55;;;;;;;0.77;0.70;;;;;;;22.35;53.76;96603.47;5039284;28;20645;-70
2023/06/27 08:29:23;;;;;;;7.28;0.85;;;;;;;22.65;53.34;96610.22;5037983;28;20319;-69
2023/06/27 08:31:54;;;;;;;3.35;0.73;;;;;;;22.72;51.32;96611.69;5038403;28;20506;-67
2023/06/27 08:34:20;;;;;;;0.85;0.68;;;;;;;22.58;50.42;96614.94;5037497;28;20209;-69
2023/06/27 08:36:47;;;;;;;0.55;0.55;;;;;;;23.19;50.17;96609.50;5038772;28;20201;-70
2023/06/27 08:39:13;;;;;;;1.10;0.70;;;;;;;23.34;48.41;96616.75;5037916;28;20700;-70
2023/06/27 09:26:15;;;;;;;1.17;0.60;;;;;;;23.17;48.47;96579.38;5053522;28;20585;-68
2023/06/27 09:28:46;;;;;;;0.70;0.70;;;;;;;23.87;48.00;96584.69;5053153;28;20209;-72
2023/06/27 09:31:13;;;;;;;1.15;0.80;;;;;;;23.74;47.37;96581.53;5053469;28;20434;-70
2023/06/27 09:33:40;;;;;;;0.68;0.60;;;;;;;23.81;45.41;96576.78;5052874;28;20321;-72
2023/06/27 09:36:06;;;;;;;1.23;0.52;;;;;;;24.26;47.28;96575.41;5052739;28;20228;-70
2023/06/27 09:38:33;;;;;;;1.00;0.70;;;;;;;24.58;42.98;96582.53;5052176;28;21043;-71
2023/06/27 09:41:03;;;;;;;1.45;0.68;;;;;;;25.01;42.07;96571.56;5052346;28;20681;-73
2023/06/27 09:43:34;;;;;;;0.88;0.57;;;;;;;24.61;45.46;96569.34;5052725;28;20709;-69
2023/06/27 09:46:00;;;;;;;2.03;0.65;;;;;;;24.43;42.98;96576.19;5052341;28;20193;-72
2023/06/27 09:48:28;;;;;;;1.02;0.68;;;;;;;24.55;41.72;96574.94;5051351;28;20209;-73
2023/06/27 09:50:58;;;;;;;1.42;0.77;;;;;;;24.20;43.19;96568.38;5052328;28;20204;-69
2023/06/27 09:53:25;;;;;;;2.00;0.98;;;;;;;24.23;44.93;96560.56;5053061;28;20224;-69
2023/06/27 09:55:57;;;;;;;1.10;0.77;;;;;;;24.44;44.66;96558.94;5051812;28;20825;-74
2023/06/27 09:58:27;;;;;;;2.30;1.17;;;;;;;24.10;42.31;96550.22;5051881;28;20212;-71
2023/06/27 10:01:02;;;;;;;2.55;1.08;;;;;;;23.52;44.93;96564.53;5051923;28;20320;-71
2023/06/27 10:03:28;;;;;;;1.45;0.77;;;;;;;23.36;47.46;96565.41;5052769;28;20270;-69
2023/06/27 10:05:55;;;;;;;0.73;0.60;;;;;;;23.27;46.12;96564.22;5052894;28;20200;-69
2023/06/27 10:08:21;;;;;;;0.57;0.50;;;;;;;22.98;46.57;96572.59;5052975;28;20211;-73
2023/06/27 10:10:48;;;;;;;1.58;1.17;;;;;;;23.45;51.68;96558.53;5053092;28;20205;-69
2023/06/27 10:13:15;;;;;;;4.45;0.93;;;;;;;24.13;56.13;96559.66;5052141;28;20224;-69
2023/06/27 10:15:41;;;;;;;1.38;0.93;;;;;;;24.42;54.10;96561.88;5053186;28;20221;-68
2023/06/27 10:18:09;;;;;;;1.65;1.00;;;;;;;24.72;48.58;96557.59;5053309;28;20204;-69
2023/06/27 10:20:35;;;;;;;1.08;0.80;;;;;;;24.82;46.54;96552.28;5052687;28;20215;-70
2023/06/27 10:23:03;;;;;;;1.63;0.90;;;;;;;24.85;46.14;96559.84;5052852;28;20585;-69
2023/06/27 10:25:29;;;;;;;1.52;0.80;;;;;;;24.69;46.55;96560.81;5053250;28;20666;-68
2023/06/27 10:28:05;;;;;;;1.02;0.63;;;;;;;24.56;42.45;96569.28;5051983;28;20201;-69
2023/06/27 10:30:32;;;;;;;0.90;0.60;;;;;;;23.97;44.63;96572.16;5052049;28;21148;-68
2023/06/27 10:33:10;;;;;;;0.73;0.70;;;;;;;24.48;45.41;96557.34;5052753;28;20228;-67
2023/06/27 10:35:40;;;;;;;0.80;0.60;;;;;;;24.40;47.03;96555.13;5050438;28;20314;-68
2023/06/27 10:38:08;;;;;;;2.70;1.00;;;;;;;24.06;47.83;96559.06;5038098;28;20301;-69
2023/06/27 10:41:09;;;;;;;3.83;0.60;;;;;;;24.41;46.05;96554.88;5039257;28;20621;-68
2023/06/27 10:43:36;;;;;;;2.60;0.88;;;;;;;24.31;47.90;96559.31;5039103;28;20311;-68
2023/06/27 10:46:07;;;;;;;0.85;0.60;;;;;;;24.26;42.92;96567.34;5039213;28;20284;-67
2023/06/27 10:48:36;;;;;;;3.95;0.73;;;;;;;24.58;45.95;96561.78;5038751;28;20281;-69
2023/06/27 10:51:07;;;;;;;2.70;0.98;;;;;;;24.74;44.89;96560.81;5038523;28;20204;-69
2023/06/27 10:53:34;;;;;;;0.82;0.70;;;;;;;24.42;43.03;96561.09;5038606;28;20325;-69
2023/06/27 10:56:14;;;;;;;1.23;0.70;;;;;;;24.49;42.39;96565.19;5039247;28;20256;-69
2023/06/27 10:58:44;;;;;;;3.63;1.08;;;;;;;24.07;43.63;96566.06;5038359;28;20201;-70
2023/06/27 11:01:11;;;;;;;1.95;0.60;;;;;;;23.69;46.39;96571.53;5038637;28;20201;-67
2023/06/27 11:03:42;;;;;;;0.68;0.63;;;;;;;24.14;47.66;96564.00;5038636;28;20229;-68
2023/06/27 11:06:09;;;;;;;2.28;0.77;;;;;;;23.64;49.67;96568.75;5038492;28;20225;-69
2023/06/27 11:08:36;;;;;;;5.50;0.98;;;;;;;23.46;47.75;96570.94;5038073;28;20209;-70
2023/06/27 11:11:05;;;;;;;2.10;1.42;;;;;;;23.69;48.45;96566.16;5038431;28;20686;-68
2023/06/27 11:13:35;;;;;;;1.77;1.05;;;;;;;24.09;49.86;96563.94;5038490;28;20268;-71
2023/06/27 11:16:02;;;;;;;0.98;0.75;;;;;;;24.06;47.75;96567.13;5038033;28;21296;-71
2023/06/27 11:18:29;;;;;;;1.48;0.98;;;;;;;24.49;46.66;96562.50;5038437;28;20282;-71
2023/06/27 11:20:57;;;;;;;4.70;1.08;;;;;;;24.78;46.02;96558.44;5038306;28;20194;-70
2023/06/27 11:23:25;;;;;;;1.63;1.10;;;;;;;24.78;44.56;96559.28;5038113;28;20251;-68
2023/06/27 11:25:53;;;;;;;1.65;0.93;;;;;;;25.00;43.24;96557.28;5038043;28;20673;-70
2023/06/27 11:28:21;;;;;;;1.27;0.68;;;;;;;24.61;41.49;96558.56;5037944;28;20212;-68
2023/06/27 11:30:47;;;;;;;1.65;0.63;;;;;;;24.92;43.23;96552.34;5037662;28;20220;-70
2023/06/27 11:33:16;;;;;;;2.53;0.85;;;;;;;25.26;42.93;96553.69;5037026;28;20218;-71
2023/06/27 11:35:43;;;;;;;1.40;0.80;;;;;;;25.51;46.44;96556.53;5038067;28;20248;-70
2023/06/27 11:38:11;;;;;;;3.20;0.77;;;;;;;25.55;45.86;96560.34;5037542;28;20415;-69
2023/06/27 11:40:38;;;;;;;0.63;0.60;;;;;;;25.12;44.34;96557.91;5037667;28;20205;-68
2023/06/27 11:43:05;;;;;;;2.90;0.90;;;;;;;25.08;43.58;96559.53;5037410;28;20713;-69
2023/06/27 11:45:34;;;;;;;2.45;0.90;;;;;;;25.49;44.61;96553.31;5037764;28;20205;-72
2023/06/27 11:48:01;;;;;;;2.15;0.90;;;;;;;25.78;43.92;96557.25;5035537;28;20666;-72
2023/06/27 11:50:29;;;;;;;1.45;0.80;;;;;;;25.24;42.33;96561.22;5038308;28;20212;-69
2023/06/27 11:52:57;;;;;;;2.83;0.98;;;;;;;24.17;43.43;96552.69;5037348;28;20236;-70
2023/06/27 11:55:26;;;;;;;2.78;1.13;;;;;;;24.58;46.34;96556.38;5037545;28;20225;-69
2023/06/27 11:57:55;;;;;;;2.85;0.95;;;;;;;24.80;45.67;96549.03;5037254;28;20208;-71
2023/06/27 12:00:26;;;;;;;0.60;0.60;;;;;;;24.78;47.68;96540.41;5037584;28;20302;-70
2023/06/27 12:02:54;;;;;;;0.98;0.80;;;;;;;24.93;48.16;96537.00;5037606;28;20213;-68
2023/06/27 12:05:22;;;;;;;0.88;0.63;;;;;;;24.80;45.65;96535.53;5037831;28;20201;-72
2023/06/27 12:08:01;;;;;;;1.38;0.73;;;;;;;24.93;46.05;96542.38;5037189;28;20670;-68
2023/06/27 12:10:29;;;;;;;0.75;0.75;;;;;;;24.65;45.79;96535.41;5036974;28;20616;-68
2023/06/27 12:12:56;;;;;;;2.08;0.80;;;;;;;24.72;46.78;96535.22;5036975;28;20309;-69
2023/06/27 12:15:23;;;;;;;2.22;1.00;;;;;;;24.53;45.44;96535.84;5037669;28;20354;-69
2023/06/27 12:18:00;;;;;;;12.48;1.00;;;;;;;24.75;44.73;96527.41;5036622;28;20197;-68
2023/06/27 12:20:39;;;;;;;1.88;0.95;;;;;;;24.93;45.92;96527.00;5037285;28;20243;-69